sensor_id;sensor_type;location;lat;lon;timestamp;P1;durP1;ratioP1;P2;durP2;ratioP2
18407;SDS011;9330;52.210;21.174;2023-01-31T00:01:34;11.80;;;6.90;;
18407;SDS011;9330;52.210;21.174;2023-01-31T00:04:03;9.60;;;6.45;;
18407;SDS011;9330;52.210;21.174;2023-01-31T00:06:32;12.25;;;7.10;;
18407;SDS011;9330;52.210;21.174;2023-01-31T00:09:01;11.52;;;6.22;;
18407;SDS011;9330;52.210;21.174;2023-01-31T00:11:29;9.80;;;5.88;;
18407;SDS011;9330;52.210;21.174;2023-01-31T00:13:58;8.90;;;5.72;;
18407;SDS011;9330;52.210;21.174;2023-01-31T00:16:26;12.50;;;7.15;;
18407;SDS011;9330;52.210;21.174;2023-01-31T00:18:53;9.35;;;6.55;;
18407;SDS011;9330;52.210;21.174;2023-01-31T00:21:20;12.15;;;6.03;;
18407;SDS011;9330;52.210;21.174;2023-01-31T00:23:48;10.65;;;6.43;;
18407;SDS011;9330;52.210;21.174;2023-01-31T00:26:17;10.27;;;6.28;;
18407;SDS011;9330;52.210;21.174;2023-01-31T00:28:46;11.45;;;6.32;;
18407;SDS011;9330;52.210;21.174;2023-01-31T00:31:15;11.88;;;6.05;;
18407;SDS011;9330;52.210;21.174;2023-01-31T00:33:43;9.15;;;5.82;;
18407;SDS011;9330;52.210;21.174;2023-01-31T00:36:12;11.18;;;6.38;;
18407;SDS011;9330;52.210;21.174;2023-01-31T00:38:41;12.85;;;6.80;;
18407;SDS011;9330;52.210;21.174;2023-01-31T00:41:08;10.48;;;5.78;;
18407;SDS011;9330;52.210;21.174;2023-01-31T00:43:36;11.80;;;6.28;;
18407;SDS011;9330;52.210;21.174;2023-01-31T00:46:03;9.18;;;5.75;;
18407;SDS011;9330;52.210;21.174;2023-01-31T00:51:00;9.32;;;6.07;;
18407;SDS011;9330;52.210;21.174;2023-01-31T00:53:27;11.80;;;6.57;;
18407;SDS011;9330;52.210;21.174;2023-01-31T00:55:55;13.32;;;6.30;;
18407;SDS011;9330;52.210;21.174;2023-01-31T00:58:27;9.65;;;6.10;;
18407;SDS011;9330;52.210;21.174;2023-01-31T01:00:54;9.45;;;5.93;;
18407;SDS011;9330;52.210;21.174;2023-01-31T01:03:21;12.20;;;6.47;;
18407;SDS011;9330;52.210;21.174;2023-01-31T01:05:49;12.30;;;6.43;;
18407;SDS011;9330;52.210;21.174;2023-01-31T01:08:16;11.25;;;5.78;;
18407;SDS011;9330;52.210;21.174;2023-01-31T01:10:43;13.00;;;5.97;;
18407;SDS011;9330;52.210;21.174;2023-01-31T01:13:09;11.65;;;6.65;;
18407;SDS011;9330;52.210;21.174;2023-01-31T01:15:37;13.02;;;6.45;;
18407;SDS011;9330;52.210;21.174;2023-01-31T01:18:04;10.85;;;6.00;;
18407;SDS011;9330;52.210;21.174;2023-01-31T01:20:33;11.48;;;5.82;;
18407;SDS011;9330;52.210;21.174;2023-01-31T01:23:01;12.00;;;6.05;;
18407;SDS011;9330;52.210;21.174;2023-01-31T01:25:29;9.48;;;5.95;;
18407;SDS011;9330;52.210;21.174;2023-01-31T01:27:56;10.38;;;5.88;;
18407;SDS011;9330;52.210;21.174;2023-01-31T01:30:23;12.68;;;6.05;;
18407;SDS011;9330;52.210;21.174;2023-01-31T01:32:49;9.57;;;5.55;;
18407;SDS011;9330;52.210;21.174;2023-01-31T01:35:19;9.68;;;5.70;;
18407;SDS011;9330;52.210;21.174;2023-01-31T01:37:46;13.45;;;6.20;;
18407;SDS011;9330;52.210;21.174;2023-01-31T01:40:14;9.48;;;5.68;;
18407;SDS011;9330;52.210;21.174;2023-01-31T01:42:41;11.63;;;5.78;;
18407;SDS011;9330;52.210;21.174;2023-01-31T01:45:10;11.57;;;5.72;;
18407;SDS011;9330;52.210;21.174;2023-01-31T01:47:41;9.07;;;5.03;;
18407;SDS011;9330;52.210;21.174;2023-01-31T01:50:15;10.30;;;5.07;;
18407;SDS011;9330;52.210;21.174;2023-01-31T01:52:46;9.05;;;5.20;;
18407;SDS011;9330;52.210;21.174;2023-01-31T01:55:18;10.70;;;5.80;;
18407;SDS011;9330;52.210;21.174;2023-01-31T01:57:50;11.07;;;5.82;;
18407;SDS011;9330;52.210;21.174;2023-01-31T02:00:21;8.82;;;5.00;;
18407;SDS011;9330;52.210;21.174;2023-01-31T02:02:51;10.60;;;5.43;;
18407;SDS011;9330;52.210;21.174;2023-01-31T02:05:23;10.10;;;4.82;;
18407;SDS011;9330;52.210;21.174;2023-01-31T02:07:53;12.38;;;5.50;;
18407;SDS011;9330;52.210;21.174;2023-01-31T02:10:23;11.55;;;5.03;;
18407;SDS011;9330;52.210;21.174;2023-01-31T02:12:54;9.88;;;5.15;;
18407;SDS011;9330;52.210;21.174;2023-01-31T02:15:21;12.43;;;6.03;;
18407;SDS011;9330;52.210;21.174;2023-01-31T02:17:48;8.82;;;5.07;;
18407;SDS011;9330;52.210;21.174;2023-01-31T02:20:23;10.82;;;5.32;;
18407;SDS011;9330;52.210;21.174;2023-01-31T02:23:04;8.23;;;5.20;;
18407;SDS011;9330;52.210;21.174;2023-01-31T02:26:05;10.88;;;5.82;;
18407;SDS011;9330;52.210;21.174;2023-01-31T02:28:54;12.48;;;5.80;;
18407;SDS011;9330;52.210;21.174;2023-01-31T02:31:57;9.88;;;5.00;;
18407;SDS011;9330;52.210;21.174;2023-01-31T02:34:42;10.75;;;5.10;;
18407;SDS011;9330;52.210;21.174;2023-01-31T02:37:20;13.10;;;5.50;;
18407;SDS011;9330;52.210;21.174;2023-01-31T02:39:56;10.27;;;5.47;;
18407;SDS011;9330;52.210;21.174;2023-01-31T02:42:33;10.02;;;5.38;;
18407;SDS011;9330;52.210;21.174;2023-01-31T02:45:08;12.30;;;5.65;;
18407;SDS011;9330;52.210;21.174;2023-01-31T02:47:41;8.35;;;4.65;;
18407;SDS011;9330;52.210;21.174;2023-01-31T02:50:27;10.27;;;4.80;;
18407;SDS011;9330;52.210;21.174;2023-01-31T02:52:58;10.00;;;4.85;;
18407;SDS011;9330;52.210;21.174;2023-01-31T02:55:30;11.35;;;5.10;;
18407;SDS011;9330;52.210;21.174;2023-01-31T02:58:35;9.45;;;4.40;;
18407;SDS011;9330;52.210;21.174;2023-01-31T03:01:03;9.70;;;4.43;;
18407;SDS011;9330;52.210;21.174;2023-01-31T03:03:31;10.55;;;4.55;;
18407;SDS011;9330;52.210;21.174;2023-01-31T03:06:09;7.63;;;4.05;;
18407;SDS011;9330;52.210;21.174;2023-01-31T03:09:00;8.95;;;4.15;;
18407;SDS011;9330;52.210;21.174;2023-01-31T03:11:32;10.20;;;4.65;;
18407;SDS011;9330;52.210;21.174;2023-01-31T03:14:07;11.82;;;4.22;;
18407;SDS011;9330;52.210;21.174;2023-01-31T03:16:44;8.20;;;4.15;;
18407;SDS011;9330;52.210;21.174;2023-01-31T03:19:37;10.68;;;4.13;;
18407;SDS011;9330;52.210;21.174;2023-01-31T03:22:14;12.80;;;4.30;;
18407;SDS011;9330;52.210;21.174;2023-01-31T03:24:48;12.48;;;4.47;;
18407;SDS011;9330;52.210;21.174;2023-01-31T03:27:17;6.97;;;3.83;;
18407;SDS011;9330;52.210;21.174;2023-01-31T03:29:45;10.55;;;4.63;;
18407;SDS011;9330;52.210;21.174;2023-01-31T03:32:14;13.57;;;4.47;;
18407;SDS011;9330;52.210;21.174;2023-01-31T03:34:47;11.35;;;4.15;;
18407;SDS011;9330;52.210;21.174;2023-01-31T03:37:19;12.43;;;4.05;;
18407;SDS011;9330;52.210;21.174;2023-01-31T03:39:52;10.93;;;4.13;;
18407;SDS011;9330;52.210;21.174;2023-01-31T03:42:26;10.85;;;3.88;;
18407;SDS011;9330;52.210;21.174;2023-01-31T03:45:03;10.30;;;3.58;;
18407;SDS011;9330;52.210;21.174;2023-01-31T03:47:35;11.70;;;3.70;;
18407;SDS011;9330;52.210;21.174;2023-01-31T03:50:05;9.52;;;3.97;;
18407;SDS011;9330;52.210;21.174;2023-01-31T03:52:37;11.95;;;3.83;;
18407;SDS011;9330;52.210;21.174;2023-01-31T03:55:11;10.23;;;3.20;;
18407;SDS011;9330;52.210;21.174;2023-01-31T03:57:43;10.45;;;3.35;;
18407;SDS011;9330;52.210;21.174;2023-01-31T04:00:14;10.63;;;3.38;;
18407;SDS011;9330;52.210;21.174;2023-01-31T04:02:44;15.45;;;4.15;;
18407;SDS011;9330;52.210;21.174;2023-01-31T04:05:16;8.68;;;3.22;;
18407;SDS011;9330;52.210;21.174;2023-01-31T04:07:47;11.80;;;3.85;;
18407;SDS011;9330;52.210;21.174;2023-01-31T04:10:15;13.02;;;3.90;;
18407;SDS011;9330;52.210;21.174;2023-01-31T04:12:44;14.52;;;4.28;;
18407;SDS011;9330;52.210;21.174;2023-01-31T04:15:12;9.85;;;3.95;;
18407;SDS011;9330;52.210;21.174;2023-01-31T04:17:39;12.80;;;4.03;;
18407;SDS011;9330;52.210;21.174;2023-01-31T04:20:06;11.18;;;3.28;;
18407;SDS011;9330;52.210;21.174;2023-01-31T04:22:36;11.35;;;3.72;;
18407;SDS011;9330;52.210;21.174;2023-01-31T04:25:05;11.93;;;3.50;;
18407;SDS011;9330;52.210;21.174;2023-01-31T04:27:32;12.90;;;3.83;;
18407;SDS011;9330;52.210;21.174;2023-01-31T04:29:59;8.35;;;3.25;;
18407;SDS011;9330;52.210;21.174;2023-01-31T04:32:26;12.45;;;3.83;;
18407;SDS011;9330;52.210;21.174;2023-01-31T04:34:53;14.68;;;4.05;;
18407;SDS011;9330;52.210;21.174;2023-01-31T04:37:20;12.93;;;4.35;;
18407;SDS011;9330;52.210;21.174;2023-01-31T04:39:47;16.60;;;3.60;;
18407;SDS011;9330;52.210;21.174;2023-01-31T04:42:15;11.68;;;3.55;;
18407;SDS011;9330;52.210;21.174;2023-01-31T04:44:42;10.03;;;3.53;;
18407;SDS011;9330;52.210;21.174;2023-01-31T04:47:09;11.75;;;3.15;;
18407;SDS011;9330;52.210;21.174;2023-01-31T04:49:36;12.90;;;3.88;;
18407;SDS011;9330;52.210;21.174;2023-01-31T04:52:03;13.50;;;3.83;;
18407;SDS011;9330;52.210;21.174;2023-01-31T04:54:30;12.40;;;3.50;;
18407;SDS011;9330;52.210;21.174;2023-01-31T04:56:57;16.98;;;4.43;;
18407;SDS011;9330;52.210;21.174;2023-01-31T04:59:25;12.98;;;3.75;;
18407;SDS011;9330;52.210;21.174;2023-01-31T05:01:52;12.90;;;3.97;;
18407;SDS011;9330;52.210;21.174;2023-01-31T05:04:19;16.58;;;3.88;;
18407;SDS011;9330;52.210;21.174;2023-01-31T05:06:46;15.35;;;4.10;;
18407;SDS011;9330;52.210;21.174;2023-01-31T05:09:13;17.73;;;4.18;;
18407;SDS011;9330;52.210;21.174;2023-01-31T05:11:40;13.63;;;4.28;;
18407;SDS011;9330;52.210;21.174;2023-01-31T05:14:07;16.92;;;3.47;;
18407;SDS011;9330;52.210;21.174;2023-01-31T05:16:36;16.30;;;4.65;;
18407;SDS011;9330;52.210;21.174;2023-01-31T05:19:02;11.05;;;3.50;;
18407;SDS011;9330;52.210;21.174;2023-01-31T05:21:29;10.02;;;3.95;;
18407;SDS011;9330;52.210;21.174;2023-01-31T05:24:17;14.27;;;4.47;;
18407;SDS011;9330;52.210;21.174;2023-01-31T05:26:44;12.73;;;3.65;;
18407;SDS011;9330;52.210;21.174;2023-01-31T05:29:11;16.92;;;4.05;;
18407;SDS011;9330;52.210;21.174;2023-01-31T05:31:39;9.20;;;3.17;;
18407;SDS011;9330;52.210;21.174;2023-01-31T05:34:06;12.10;;;4.50;;
18407;SDS011;9330;52.210;21.174;2023-01-31T05:36:34;17.10;;;4.53;;
18407;SDS011;9330;52.210;21.174;2023-01-31T05:39:01;19.08;;;4.07;;
18407;SDS011;9330;52.210;21.174;2023-01-31T05:41:28;12.93;;;3.25;;
18407;SDS011;9330;52.210;21.174;2023-01-31T05:43:56;11.60;;;3.75;;
18407;SDS011;9330;52.210;21.174;2023-01-31T05:46:22;11.32;;;3.40;;
18407;SDS011;9330;52.210;21.174;2023-01-31T05:48:51;11.25;;;3.60;;
18407;SDS011;9330;52.210;21.174;2023-01-31T05:51:17;13.70;;;3.05;;
18407;SDS011;9330;52.210;21.174;2023-01-31T05:53:44;11.32;;;3.13;;
18407;SDS011;9330;52.210;21.174;2023-01-31T05:56:12;11.60;;;3.35;;
18407;SDS011;9330;52.210;21.174;2023-01-31T05:58:40;15.27;;;3.88;;
18407;SDS011;9330;52.210;21.174;2023-01-31T06:01:07;12.60;;;3.30;;
18407;SDS011;9330;52.210;21.174;2023-01-31T06:03:34;8.55;;;2.67;;
18407;SDS011;9330;52.210;21.174;2023-01-31T06:06:02;12.02;;;2.20;;
18407;SDS011;9330;52.210;21.174;2023-01-31T06:08:29;11.32;;;2.80;;
18407;SDS011;9330;52.210;21.174;2023-01-31T06:10:56;11.13;;;2.80;;
18407;SDS011;9330;52.210;21.174;2023-01-31T06:13:26;7.72;;;2.70;;
18407;SDS011;9330;52.210;21.174;2023-01-31T06:15:54;16.95;;;3.35;;
18407;SDS011;9330;52.210;21.174;2023-01-31T06:18:21;14.77;;;3.80;;
18407;SDS011;9330;52.210;21.174;2023-01-31T06:20:48;13.20;;;2.85;;
18407;SDS011;9330;52.210;21.174;2023-01-31T06:23:16;13.70;;;3.10;;
18407;SDS011;9330;52.210;21.174;2023-01-31T06:25:43;11.38;;;3.38;;
18407;SDS011;9330;52.210;21.174;2023-01-31T06:28:10;11.57;;;3.42;;
18407;SDS011;9330;52.210;21.174;2023-01-31T06:30:37;14.93;;;4.43;;
18407;SDS011;9330;52.210;21.174;2023-01-31T06:33:03;13.07;;;3.53;;
18407;SDS011;9330;52.210;21.174;2023-01-31T06:35:30;12.10;;;3.78;;
18407;SDS011;9330;52.210;21.174;2023-01-31T06:37:58;11.98;;;3.72;;
18407;SDS011;9330;52.210;21.174;2023-01-31T06:40:26;13.90;;;3.13;;
18407;SDS011;9330;52.210;21.174;2023-01-31T06:42:54;14.57;;;3.70;;
18407;SDS011;9330;52.210;21.174;2023-01-31T06:45:21;9.25;;;3.05;;
18407;SDS011;9330;52.210;21.174;2023-01-31T06:47:48;12.35;;;3.38;;
18407;SDS011;9330;52.210;21.174;2023-01-31T06:50:15;11.30;;;2.78;;
18407;SDS011;9330;52.210;21.174;2023-01-31T06:52:43;10.93;;;2.90;;
18407;SDS011;9330;52.210;21.174;2023-01-31T06:55:10;11.55;;;3.13;;
18407;SDS011;9330;52.210;21.174;2023-01-31T06:57:42;10.75;;;3.33;;
18407;SDS011;9330;52.210;21.174;2023-01-31T07:00:11;8.57;;;3.20;;
18407;SDS011;9330;52.210;21.174;2023-01-31T07:02:39;13.50;;;2.92;;
18407;SDS011;9330;52.210;21.174;2023-01-31T07:05:06;13.60;;;3.60;;
18407;SDS011;9330;52.210;21.174;2023-01-31T07:07:33;13.60;;;2.97;;
18407;SDS011;9330;52.210;21.174;2023-01-31T07:10:00;8.68;;;3.08;;
18407;SDS011;9330;52.210;21.174;2023-01-31T07:12:27;8.73;;;2.78;;
18407;SDS011;9330;52.210;21.174;2023-01-31T07:14:55;8.60;;;2.70;;
18407;SDS011;9330;52.210;21.174;2023-01-31T07:17:22;11.32;;;2.95;;
18407;SDS011;9330;52.210;21.174;2023-01-31T07:19:49;9.15;;;3.13;;
18407;SDS011;9330;52.210;21.174;2023-01-31T07:22:16;11.77;;;3.20;;
18407;SDS011;9330;52.210;21.174;2023-01-31T07:24:43;9.45;;;3.55;;
18407;SDS011;9330;52.210;21.174;2023-01-31T07:27:11;10.52;;;3.20;;
18407;SDS011;9330;52.210;21.174;2023-01-31T07:29:38;12.80;;;3.40;;
18407;SDS011;9330;52.210;21.174;2023-01-31T07:32:06;14.63;;;3.33;;
18407;SDS011;9330;52.210;21.174;2023-01-31T07:34:33;9.80;;;3.17;;
18407;SDS011;9330;52.210;21.174;2023-01-31T07:37:00;15.02;;;3.20;;
18407;SDS011;9330;52.210;21.174;2023-01-31T07:39:27;9.52;;;3.05;;
18407;SDS011;9330;52.210;21.174;2023-01-31T07:41:54;11.23;;;2.95;;
18407;SDS011;9330;52.210;21.174;2023-01-31T07:44:21;9.40;;;3.00;;
18407;SDS011;9330;52.210;21.174;2023-01-31T07:46:48;14.45;;;4.07;;
18407;SDS011;9330;52.210;21.174;2023-01-31T07:49:19;9.65;;;2.85;;
18407;SDS011;9330;52.210;21.174;2023-01-31T07:51:47;9.48;;;2.70;;
18407;SDS011;9330;52.210;21.174;2023-01-31T07:54:14;10.65;;;2.78;;
18407;SDS011;9330;52.210;21.174;2023-01-31T07:56:41;14.65;;;3.38;;
18407;SDS011;9330;52.210;21.174;2023-01-31T07:59:08;11.70;;;2.83;;
18407;SDS011;9330;52.210;21.174;2023-01-31T08:01:35;8.38;;;2.47;;
18407;SDS011;9330;52.210;21.174;2023-01-31T08:04:20;9.38;;;2.70;;
18407;SDS011;9330;52.210;21.174;2023-01-31T08:06:47;8.80;;;2.50;;
18407;SDS011;9330;52.210;21.174;2023-01-31T08:09:15;10.30;;;3.67;;
18407;SDS011;9330;52.210;21.174;2023-01-31T08:11:42;14.38;;;2.95;;
18407;SDS011;9330;52.210;21.174;2023-01-31T08:14:09;12.88;;;2.95;;
18407;SDS011;9330;52.210;21.174;2023-01-31T08:16:36;10.32;;;2.70;;
18407;SDS011;9330;52.210;21.174;2023-01-31T08:19:04;19.20;;;3.33;;
18407;SDS011;9330;52.210;21.174;2023-01-31T08:21:32;11.07;;;2.70;;
18407;SDS011;9330;52.210;21.174;2023-01-31T08:23:59;9.98;;;3.00;;
18407;SDS011;9330;52.210;21.174;2023-01-31T08:26:26;12.40;;;3.05;;
18407;SDS011;9330;52.210;21.174;2023-01-31T08:28:53;9.70;;;2.70;;
18407;SDS011;9330;52.210;21.174;2023-01-31T08:31:20;9.13;;;2.63;;
18407;SDS011;9330;52.210;21.174;2023-01-31T08:33:48;9.93;;;3.03;;
18407;SDS011;9330;52.210;21.174;2023-01-31T08:36:18;13.10;;;3.30;;
18407;SDS011;9330;52.210;21.174;2023-01-31T08:38:48;14.18;;;3.38;;
18407;SDS011;9330;52.210;21.174;2023-01-31T08:41:16;8.07;;;2.78;;
18407;SDS011;9330;52.210;21.174;2023-01-31T08:43:45;11.82;;;3.47;;
18407;SDS011;9330;52.210;21.174;2023-01-31T08:46:13;11.10;;;2.63;;
18407;SDS011;9330;52.210;21.174;2023-01-31T08:48:40;11.63;;;3.10;;
18407;SDS011;9330;52.210;21.174;2023-01-31T08:51:09;14.25;;;2.95;;
18407;SDS011;9330;52.210;21.174;2023-01-31T08:53:37;9.27;;;2.88;;
18407;SDS011;9330;52.210;21.174;2023-01-31T08:56:06;12.10;;;3.30;;
18407;SDS011;9330;52.210;21.174;2023-01-31T08:58:34;9.65;;;2.72;;
18407;SDS011;9330;52.210;21.174;2023-01-31T09:01:04;11.25;;;3.40;;
18407;SDS011;9330;52.210;21.174;2023-01-31T09:03:31;12.98;;;3.55;;
18407;SDS011;9330;52.210;21.174;2023-01-31T09:05:58;15.35;;;3.55;;
18407;SDS011;9330;52.210;21.174;2023-01-31T09:08:25;9.13;;;3.00;;
18407;SDS011;9330;52.210;21.174;2023-01-31T09:10:52;9.68;;;2.78;;
18407;SDS011;9330;52.210;21.174;2023-01-31T09:13:21;10.48;;;3.08;;
18407;SDS011;9330;52.210;21.174;2023-01-31T09:15:55;8.05;;;2.95;;
18407;SDS011;9330;52.210;21.174;2023-01-31T09:18:23;8.93;;;3.10;;
18407;SDS011;9330;52.210;21.174;2023-01-31T09:20:49;7.93;;;2.53;;
18407;SDS011;9330;52.210;21.174;2023-01-31T09:23:16;9.38;;;2.33;;
18407;SDS011;9330;52.210;21.174;2023-01-31T09:25:44;8.77;;;2.53;;
18407;SDS011;9330;52.210;21.174;2023-01-31T09:28:16;9.57;;;2.15;;
18407;SDS011;9330;52.210;21.174;2023-01-31T09:30:45;8.40;;;2.78;;
18407;SDS011;9330;52.210;21.174;2023-01-31T09:33:11;10.45;;;2.55;;
18407;SDS011;9330;52.210;21.174;2023-01-31T09:35:38;10.43;;;2.60;;
18407;SDS011;9330;52.210;21.174;2023-01-31T09:38:05;9.95;;;2.85;;
18407;SDS011;9330;52.210;21.174;2023-01-31T09:40:34;9.45;;;2.55;;
18407;SDS011;9330;52.210;21.174;2023-01-31T09:43:05;8.68;;;2.75;;
18407;SDS011;9330;52.210;21.174;2023-01-31T09:45:36;10.90;;;3.13;;
18407;SDS011;9330;52.210;21.174;2023-01-31T09:48:12;9.20;;;2.28;;
18407;SDS011;9330;52.210;21.174;2023-01-31T09:50:44;13.15;;;3.33;;
18407;SDS011;9330;52.210;21.174;2023-01-31T09:53:16;8.90;;;3.05;;
18407;SDS011;9330;52.210;21.174;2023-01-31T09:55:47;10.68;;;3.10;;
18407;SDS011;9330;52.210;21.174;2023-01-31T09:58:21;11.73;;;3.17;;
18407;SDS011;9330;52.210;21.174;2023-01-31T10:00:56;9.88;;;3.03;;
18407;SDS011;9330;52.210;21.174;2023-01-31T10:03:43;9.93;;;2.90;;
18407;SDS011;9330;52.210;21.174;2023-01-31T10:06:17;9.20;;;2.78;;
18407;SDS011;9330;52.210;21.174;2023-01-31T10:08:49;9.35;;;2.85;;
18407;SDS011;9330;52.210;21.174;2023-01-31T10:11:23;12.13;;;3.53;;
18407;SDS011;9330;52.210;21.174;2023-01-31T10:13:57;6.72;;;2.50;;
18407;SDS011;9330;52.210;21.174;2023-01-31T10:16:30;11.18;;;2.67;;
18407;SDS011;9330;52.210;21.174;2023-01-31T10:19:04;14.40;;;2.65;;
18407;SDS011;9330;52.210;21.174;2023-01-31T10:21:37;8.05;;;2.47;;
18407;SDS011;9330;52.210;21.174;2023-01-31T10:24:10;13.35;;;3.08;;
18407;SDS011;9330;52.210;21.174;2023-01-31T10:26:41;8.35;;;3.00;;
18407;SDS011;9330;52.210;21.174;2023-01-31T10:29:13;8.88;;;3.05;;
18407;SDS011;9330;52.210;21.174;2023-01-31T10:31:43;10.45;;;2.72;;
18407;SDS011;9330;52.210;21.174;2023-01-31T10:34:17;7.63;;;2.72;;
18407;SDS011;9330;52.210;21.174;2023-01-31T10:36:48;9.80;;;2.92;;
18407;SDS011;9330;52.210;21.174;2023-01-31T10:39:21;7.18;;;3.17;;
18407;SDS011;9330;52.210;21.174;2023-01-31T10:41:58;9.43;;;2.97;;
18407;SDS011;9330;52.210;21.174;2023-01-31T10:44:38;10.98;;;2.95;;
18407;SDS011;9330;52.210;21.174;2023-01-31T10:47:09;10.55;;;2.85;;
18407;SDS011;9330;52.210;21.174;2023-01-31T10:49:40;8.95;;;3.08;;
18407;SDS011;9330;52.210;21.174;2023-01-31T10:52:12;7.95;;;2.90;;
18407;SDS011;9330;52.210;21.174;2023-01-31T10:54:52;8.15;;;2.67;;
18407;SDS011;9330;52.210;21.174;2023-01-31T10:57:29;10.48;;;2.78;;
18407;SDS011;9330;52.210;21.174;2023-01-31T10:59:57;6.72;;;2.78;;
18407;SDS011;9330;52.210;21.174;2023-01-31T11:02:25;7.90;;;3.35;;
18407;SDS011;9330;52.210;21.174;2023-01-31T11:04:55;9.50;;;3.28;;
18407;SDS011;9330;52.210;21.174;2023-01-31T11:07:23;9.70;;;2.97;;
18407;SDS011;9330;52.210;21.174;2023-01-31T11:09:53;9.65;;;3.47;;
18407;SDS011;9330;52.210;21.174;2023-01-31T11:12:38;9.90;;;2.63;;
18407;SDS011;9330;52.210;21.174;2023-01-31T11:15:10;13.30;;;2.95;;
18407;SDS011;9330;52.210;21.174;2023-01-31T11:17:41;9.02;;;2.72;;
18407;SDS011;9330;52.210;21.174;2023-01-31T11:20:20;9.07;;;2.45;;
18407;SDS011;9330;52.210;21.174;2023-01-31T11:22:49;7.40;;;2.30;;
18407;SDS011;9330;52.210;21.174;2023-01-31T11:25:18;8.65;;;2.17;;
18407;SDS011;9330;52.210;21.174;2023-01-31T11:27:46;8.13;;;2.33;;
18407;SDS011;9330;52.210;21.174;2023-01-31T11:30:19;6.05;;;2.33;;
18407;SDS011;9330;52.210;21.174;2023-01-31T11:32:50;7.78;;;2.88;;
18407;SDS011;9330;52.210;21.174;2023-01-31T11:35:23;8.65;;;2.38;;
18407;SDS011;9330;52.210;21.174;2023-01-31T11:37:52;9.40;;;2.50;;
18407;SDS011;9330;52.210;21.174;2023-01-31T11:40:21;9.00;;;2.30;;
18407;SDS011;9330;52.210;21.174;2023-01-31T11:42:55;8.18;;;2.70;;
18407;SDS011;9330;52.210;21.174;2023-01-31T11:45:24;7.25;;;2.80;;
18407;SDS011;9330;52.210;21.174;2023-01-31T11:47:54;12.65;;;3.70;;
18407;SDS011;9330;52.210;21.174;2023-01-31T11:50:24;6.47;;;2.53;;
18407;SDS011;9330;52.210;21.174;2023-01-31T11:52:58;8.13;;;2.83;;
18407;SDS011;9330;52.210;21.174;2023-01-31T11:55:26;8.07;;;2.10;;
18407;SDS011;9330;52.210;21.174;2023-01-31T11:58:00;5.95;;;2.42;;
18407;SDS011;9330;52.210;21.174;2023-01-31T12:00:31;9.52;;;3.00;;
18407;SDS011;9330;52.210;21.174;2023-01-31T12:03:00;9.23;;;3.53;;
18407;SDS011;9330;52.210;21.174;2023-01-31T12:05:43;9.25;;;2.55;;
18407;SDS011;9330;52.210;21.174;2023-01-31T12:08:27;9.98;;;2.75;;
18407;SDS011;9330;52.210;21.174;2023-01-31T12:10:56;8.32;;;2.88;;
18407;SDS011;9330;52.210;21.174;2023-01-31T12:13:23;8.70;;;2.88;;
18407;SDS011;9330;52.210;21.174;2023-01-31T12:15:51;9.63;;;2.67;;
18407;SDS011;9330;52.210;21.174;2023-01-31T12:18:24;11.60;;;2.80;;
18407;SDS011;9330;52.210;21.174;2023-01-31T12:21:02;6.22;;;2.28;;
18407;SDS011;9330;52.210;21.174;2023-01-31T12:23:34;7.22;;;2.83;;
18407;SDS011;9330;52.210;21.174;2023-01-31T12:26:08;6.18;;;2.17;;
18407;SDS011;9330;52.210;21.174;2023-01-31T12:34:34;8.80;;;2.67;;
18407;SDS011;9330;52.210;21.174;2023-01-31T12:37:19;7.93;;;1.92;;
18407;SDS011;9330;52.210;21.174;2023-01-31T12:39:58;8.20;;;2.60;;
18407;SDS011;9330;52.210;21.174;2023-01-31T12:42:49;8.27;;;2.70;;
18407;SDS011;9330;52.210;21.174;2023-01-31T12:45:29;7.53;;;2.42;;
18407;SDS011;9330;52.210;21.174;2023-01-31T12:48:16;7.30;;;2.83;;
18407;SDS011;9330;52.210;21.174;2023-01-31T12:51:10;8.50;;;3.08;;
18407;SDS011;9330;52.210;21.174;2023-01-31T12:53:51;7.55;;;2.85;;
18407;SDS011;9330;52.210;21.174;2023-01-31T12:59:25;7.40;;;2.60;;
18407;SDS011;9330;52.210;21.174;2023-01-31T13:02:24;12.30;;;3.83;;
18407;SDS011;9330;52.210;21.174;2023-01-31T13:05:02;12.30;;;4.00;;
18407;SDS011;9330;52.210;21.174;2023-01-31T13:07:37;11.63;;;3.10;;
18407;SDS011;9330;52.210;21.174;2023-01-31T13:10:24;8.70;;;3.28;;
18407;SDS011;9330;52.210;21.174;2023-01-31T13:12:55;7.07;;;3.20;;
18407;SDS011;9330;52.210;21.174;2023-01-31T13:15:26;10.52;;;3.28;;
18407;SDS011;9330;52.210;21.174;2023-01-31T13:17:59;9.00;;;3.15;;
18407;SDS011;9330;52.210;21.174;2023-01-31T13:20:30;10.52;;;3.47;;
18407;SDS011;9330;52.210;21.174;2023-01-31T13:23:02;12.02;;;3.97;;
18407;SDS011;9330;52.210;21.174;2023-01-31T13:25:36;9.85;;;3.45;;
18407;SDS011;9330;52.210;21.174;2023-01-31T13:28:08;10.18;;;3.25;;
18407;SDS011;9330;52.210;21.174;2023-01-31T13:30:40;6.72;;;2.30;;
18407;SDS011;9330;52.210;21.174;2023-01-31T13:33:19;11.50;;;3.40;;
18407;SDS011;9330;52.210;21.174;2023-01-31T13:35:55;7.75;;;3.13;;
18407;SDS011;9330;52.210;21.174;2023-01-31T13:38:27;10.20;;;2.90;;
18407;SDS011;9330;52.210;21.174;2023-01-31T13:41:02;10.85;;;2.88;;
18407;SDS011;9330;52.210;21.174;2023-01-31T13:43:30;9.90;;;2.80;;
18407;SDS011;9330;52.210;21.174;2023-01-31T13:45:57;6.38;;;2.95;;
18407;SDS011;9330;52.210;21.174;2023-01-31T13:48:34;10.25;;;2.53;;
18407;SDS011;9330;52.210;21.174;2023-01-31T13:51:06;9.02;;;3.25;;
18407;SDS011;9330;52.210;21.174;2023-01-31T13:53:41;10.63;;;2.45;;
18407;SDS011;9330;52.210;21.174;2023-01-31T13:56:17;10.55;;;2.67;;
18407;SDS011;9330;52.210;21.174;2023-01-31T13:58:49;11.07;;;3.15;;
18407;SDS011;9330;52.210;21.174;2023-01-31T14:01:17;9.98;;;2.95;;
18407;SDS011;9330;52.210;21.174;2023-01-31T14:09:45;5.82;;;2.42;;
18407;SDS011;9330;52.210;21.174;2023-01-31T14:12:47;7.85;;;2.67;;
18407;SDS011;9330;52.210;21.174;2023-01-31T14:18:11;7.90;;;2.55;;
18407;SDS011;9330;52.210;21.174;2023-01-31T14:20:38;7.40;;;2.92;;
18407;SDS011;9330;52.210;21.174;2023-01-31T14:25:55;9.80;;;3.22;;
18407;SDS011;9330;52.210;21.174;2023-01-31T14:28:23;9.45;;;3.50;;
18407;SDS011;9330;52.210;21.174;2023-01-31T14:30:51;7.28;;;3.10;;
18407;SDS011;9330;52.210;21.174;2023-01-31T14:33:27;7.93;;;3.25;;
18407;SDS011;9330;52.210;21.174;2023-01-31T14:36:19;11.57;;;3.83;;
18407;SDS011;9330;52.210;21.174;2023-01-31T14:39:31;8.55;;;3.50;;
18407;SDS011;9330;52.210;21.174;2023-01-31T14:45:05;8.13;;;3.28;;
18407;SDS011;9330;52.210;21.174;2023-01-31T14:47:51;9.50;;;3.45;;
18407;SDS011;9330;52.210;21.174;2023-01-31T14:50:31;8.02;;;3.22;;
18407;SDS011;9330;52.210;21.174;2023-01-31T14:53:07;5.43;;;2.75;;
18407;SDS011;9330;52.210;21.174;2023-01-31T14:55:47;8.50;;;3.30;;
18407;SDS011;9330;52.210;21.174;2023-01-31T14:58:27;9.75;;;3.53;;
18407;SDS011;9330;52.210;21.174;2023-01-31T15:00:59;10.02;;;3.88;;
18407;SDS011;9330;52.210;21.174;2023-01-31T15:03:29;7.88;;;3.63;;
18407;SDS011;9330;52.210;21.174;2023-01-31T15:06:05;8.65;;;3.50;;
18407;SDS011;9330;52.210;21.174;2023-01-31T15:08:39;11.25;;;4.10;;
18407;SDS011;9330;52.210;21.174;2023-01-31T15:11:12;9.82;;;3.72;;
18407;SDS011;9330;52.210;21.174;2023-01-31T15:14:00;9.00;;;4.07;;
18407;SDS011;9330;52.210;21.174;2023-01-31T15:16:36;9.07;;;3.60;;
18407;SDS011;9330;52.210;21.174;2023-01-31T15:19:05;8.60;;;3.78;;
18407;SDS011;9330;52.210;21.174;2023-01-31T15:21:36;10.27;;;4.15;;
18407;SDS011;9330;52.210;21.174;2023-01-31T15:24:11;11.27;;;3.83;;
18407;SDS011;9330;52.210;21.174;2023-01-31T15:26:43;9.73;;;4.55;;
18407;SDS011;9330;52.210;21.174;2023-01-31T15:29:12;13.52;;;4.47;;
18407;SDS011;9330;52.210;21.174;2023-01-31T15:31:46;9.35;;;3.97;;